TOF weather

Bogashevo Airport
Tomsk, Tomsk Oblast, Russia

Public forecast

Using degrees Celsius for public forecast. Weather courtesy of forecast.io.

Current aviation weather report (METAR) for Bogashevo Airport

Retrieved 2020/04/03 00:00 UTC (21 minutes ago):

UNTT 030000Z 20008MPS CAVOK 06/03 Q1014 R21/290050 NOSIG RMK QFE745

Closest aviation forecast (TAF) to Bogashevo Airport

Closest forecast is Kemerovo Airport, 73.2 nm (135.6 km) SSE. Retrieved 2020-04-03 00:21 UTC (8 seconds ago):

TAF UNEE 022300Z 0300/0324 19006G13MPS 9999 SCT020 TEMPO 0300/0306 23008G15MPS -SHRA BKN016CB BECMG 0306/0308 28003G08MPS